createdAt,value
2017-04-11T00:00:56.728Z,945.6
2017-04-11T00:02:04.734Z,945.6
2017-04-11T00:03:12.662Z,945.7
2017-04-11T00:04:20.746Z,945.7
2017-04-11T00:05:28.828Z,945.7
2017-04-11T00:06:36.973Z,945.7
2017-04-11T00:07:45.063Z,945.7
2017-04-11T00:08:53.085Z,945.7
2017-04-11T00:10:01.222Z,945.7
2017-04-11T00:11:09.259Z,945.7
2017-04-11T00:12:17.465Z,945.7
2017-04-11T00:13:25.429Z,945.8
2017-04-11T00:14:33.515Z,945.7
2017-04-11T00:15:41.657Z,945.7
2017-04-11T00:16:49.681Z,945.7
2017-04-11T00:17:58.273Z,945.7
2017-04-11T00:19:05.857Z,945.7
2017-04-11T00:20:13.944Z,945.7
2017-04-11T00:21:22.089Z,945.7
2017-04-11T00:22:30.123Z,945.7
2017-04-11T00:23:38.265Z,945.7
2017-04-11T00:24:46.304Z,945.7
2017-04-11T00:25:54.390Z,945.8
2017-04-11T00:27:02.481Z,945.8
2017-04-11T00:28:10.570Z,945.8
2017-04-11T00:29:18.803Z,945.8
2017-04-11T00:30:26.740Z,945.8
2017-04-11T00:31:35.331Z,945.9
2017-04-11T00:32:42.907Z,945.9
2017-04-11T00:33:50.993Z,945.9
2017-04-11T00:34:59.149Z,945.9
2017-04-11T00:36:07.172Z,945.9
2017-04-11T00:37:15.250Z,945.9
2017-04-11T00:38:23.340Z,945.9
2017-04-11T00:39:31.569Z,945.9
2017-04-11T00:40:39.695Z,945.9
2017-04-11T00:41:47.601Z,945.9
2017-04-11T00:42:55.687Z,945.9
2017-04-11T00:44:03.768Z,945.9
2017-04-11T00:45:11.859Z,945.9
2017-04-11T00:46:20.006Z,945.9
2017-04-11T00:47:28.539Z,946.0
2017-04-11T00:48:36.120Z,945.9
2017-04-11T00:49:44.206Z,945.9
2017-04-11T00:50:52.434Z,945.9
2017-04-11T00:52:00.499Z,945.9
2017-04-11T00:53:08.460Z,945.9
2017-04-11T00:54:16.551Z,945.9
2017-04-11T00:55:24.627Z,945.9
2017-04-11T00:56:32.720Z,945.9
2017-04-11T00:57:40.868Z,945.9
2017-04-11T00:58:48.897Z,945.9
2017-04-11T00:59:56.986Z,945.9
2017-04-11T01:01:05.069Z,945.9
2017-04-11T01:02:13.289Z,945.9
2017-04-11T01:03:21.301Z,946.0
2017-04-11T01:04:29.331Z,946.0
2017-04-11T01:05:37.419Z,946.0
2017-04-11T01:06:45.507Z,946.0
2017-04-11T01:07:53.764Z,946.0
2017-04-11T01:09:02.360Z,946.0
2017-04-11T01:10:09.949Z,946.0
2017-04-11T01:11:18.033Z,946.0
2017-04-11T01:12:26.113Z,946.0
2017-04-11T01:13:34.208Z,946.0
2017-04-11T01:14:42.412Z,946.0
2017-04-11T01:15:50.386Z,946.0
2017-04-11T01:16:58.469Z,946.0
2017-04-11T01:18:06.558Z,946.0
2017-04-11T01:19:14.705Z,946.0
2017-04-11T01:20:23.246Z,946.0
2017-04-11T01:21:30.896Z,946.1
2017-04-11T01:22:39.083Z,946.0
2017-04-11T01:23:47.006Z,946.1
2017-04-11T01:24:55.088Z,946.1
2017-04-11T01:26:03.306Z,946.1
2017-04-11T01:27:11.269Z,946.1
2017-04-11T01:28:19.378Z,946.0
2017-04-11T01:29:27.439Z,946.0
2017-04-11T01:30:35.524Z,946.0
2017-04-11T01:31:44.119Z,946.0
2017-04-11T01:32:51.841Z,946.0
2017-04-11T01:33:59.794Z,946.0
2017-04-11T01:35:07.943Z,946.0
2017-04-11T01:36:15.969Z,946.0
2017-04-11T01:37:24.121Z,946.0
2017-04-11T01:38:32.161Z,946.0
2017-04-11T01:39:40.252Z,946.0
2017-04-11T01:40:48.322Z,946.0
2017-04-11T01:41:56.410Z,946.0
2017-04-11T01:43:04.723Z,946.0
2017-04-11T01:44:12.731Z,946.1
2017-04-11T01:45:20.668Z,946.1
2017-04-11T01:46:28.755Z,946.1
2017-04-11T01:47:37.031Z,946.1
2017-04-11T01:48:44.981Z,946.1
2017-04-11T01:49:53.011Z,946.1
2017-04-11T01:51:01.604Z,946.1
2017-04-11T01:52:09.186Z,946.0
2017-04-11T01:53:17.274Z,946.0
2017-04-11T01:54:25.635Z,946.0
2017-04-11T01:55:33.448Z,946.0
2017-04-11T01:56:41.537Z,946.0
2017-04-11T01:57:49.623Z,945.9
2017-04-11T01:58:57.708Z,945.9
2017-04-11T02:00:05.851Z,945.9
2017-04-11T02:01:13.888Z,945.9
2017-04-11T02:02:21.970Z,945.9
2017-04-11T02:03:30.057Z,945.9
2017-04-11T02:04:38.226Z,945.9
2017-04-11T02:05:46.423Z,945.9
2017-04-11T02:06:54.819Z,945.8
2017-04-11T02:08:02.401Z,945.8
2017-04-11T02:09:10.496Z,945.8
2017-04-11T02:10:18.758Z,945.8
2017-04-11T02:11:26.724Z,945.8
2017-04-11T02:12:34.762Z,945.9
2017-04-11T02:13:42.846Z,945.9
2017-04-11T02:14:50.929Z,945.9
2017-04-11T02:15:59.019Z,946.0
2017-04-11T02:17:07.165Z,946.1
2017-04-11T02:18:15.199Z,946.1
2017-04-11T02:19:23.279Z,946.1
2017-04-11T02:20:31.473Z,946.1
2017-04-11T02:21:39.528Z,946.2
2017-04-11T02:22:48.042Z,946.2
2017-04-11T02:23:55.629Z,946.2
2017-04-11T02:25:03.700Z,946.2
2017-04-11T02:26:11.799Z,946.3
2017-04-11T02:27:19.882Z,946.3
2017-04-11T02:28:28.026Z,946.3
2017-04-11T02:29:36.052Z,946.3
2017-04-11T02:30:44.133Z,946.3
2017-04-11T02:31:52.256Z,946.2
2017-04-11T02:33:00.317Z,946.2
2017-04-11T02:34:08.492Z,946.2
2017-04-11T02:35:16.484Z,946.3
2017-04-11T02:36:24.754Z,946.3
2017-04-11T02:37:32.658Z,946.3
2017-04-11T02:38:40.864Z,946.3
2017-04-11T02:39:49.328Z,946.3
2017-04-11T02:40:56.922Z,946.3
2017-04-11T02:42:05.071Z,946.2
2017-04-11T02:43:13.167Z,946.3
2017-04-11T02:44:21.185Z,946.3
2017-04-11T02:45:29.322Z,946.2
2017-04-11T02:46:37.354Z,946.3
2017-04-11T02:47:45.437Z,946.2
2017-04-11T02:48:53.524Z,946.2
2017-04-11T02:50:01.615Z,946.2
2017-04-11T02:51:09.753Z,946.2
2017-04-11T02:52:17.789Z,946.2
2017-04-11T02:53:25.873Z,946.1
2017-04-11T02:54:34.074Z,946.1
2017-04-11T02:55:42.039Z,946.1
2017-04-11T02:56:50.634Z,946.2
2017-04-11T02:57:58.211Z,946.2
2017-04-11T02:59:06.296Z,946.1
2017-04-11T03:00:14.385Z,946.2
2017-04-11T03:01:22.470Z,946.2
2017-04-11T03:02:30.610Z,946.1
2017-04-11T03:03:38.722Z,946.1
2017-04-11T03:04:46.796Z,946.2
2017-04-11T03:05:54.809Z,946.1
2017-04-11T03:07:02.894Z,946.1
2017-04-11T03:08:11.039Z,946.1
2017-04-11T03:09:19.078Z,946.1
2017-04-11T03:10:27.218Z,946.1
2017-04-11T03:11:35.251Z,946.1
2017-04-11T03:12:43.338Z,946.1
2017-04-11T03:13:51.931Z,946.1
2017-04-11T03:14:59.583Z,946.1
2017-04-11T03:16:07.590Z,946.1
2017-04-11T03:17:15.680Z,946.1
2017-04-11T03:18:23.759Z,946.2
2017-04-11T03:19:31.904Z,946.1
2017-04-11T03:20:39.933Z,946.1
2017-04-11T03:21:48.016Z,946.1
2017-04-11T03:22:56.101Z,946.1
2017-04-11T03:24:04.196Z,946.2
2017-04-11T03:25:12.400Z,946.2
2017-04-11T03:26:20.467Z,946.2
2017-04-11T03:27:28.453Z,946.2
2017-04-11T03:28:36.537Z,946.2
2017-04-11T03:29:44.622Z,946.2
2017-04-11T03:30:53.389Z,946.2
2017-04-11T03:32:00.796Z,946.2
2017-04-11T03:33:08.880Z,946.2
2017-04-11T03:34:16.969Z,946.2
2017-04-11T03:35:25.060Z,946.2
2017-04-11T03:36:33.216Z,946.2
2017-04-11T03:37:41.234Z,946.1
2017-04-11T03:38:49.322Z,946.2
2017-04-11T03:39:57.412Z,946.1
2017-04-11T03:41:05.594Z,946.1
2017-04-11T03:42:14.090Z,946.1
2017-04-11T03:43:21.672Z,946.1
2017-04-11T03:44:29.765Z,946.1
2017-04-11T03:45:37.845Z,946.2
2017-04-11T03:46:45.935Z,946.2
2017-04-11T03:47:54.076Z,946.2
2017-04-11T03:49:02.106Z,946.2
2017-04-11T03:50:10.192Z,946.2
2017-04-11T03:51:18.275Z,946.2
2017-04-11T03:52:26.379Z,946.2
2017-04-11T03:53:34.947Z,946.2
2017-04-11T03:54:42.527Z,946.2
2017-04-11T03:55:50.614Z,946.2
2017-04-11T03:56:58.897Z,946.3
2017-04-11T03:58:06.837Z,946.3
2017-04-11T03:59:14.924Z,946.3
2017-04-11T04:00:22.953Z,946.3
2017-04-11T04:01:31.045Z,946.3
2017-04-11T04:02:39.212Z,946.3
2017-04-11T04:03:47.260Z,946.3
2017-04-11T04:04:55.815Z,946.3
2017-04-11T04:06:03.390Z,946.3
2017-04-11T04:07:11.654Z,946.3
2017-04-11T04:08:19.742Z,946.3
2017-04-11T04:09:27.640Z,946.4
2017-04-11T04:10:35.788Z,946.4
2017-04-11T04:11:43.814Z,946.4
2017-04-11T04:12:51.904Z,946.5
2017-04-11T04:14:00.119Z,946.5
2017-04-11T04:15:08.074Z,946.5
2017-04-11T04:16:16.662Z,946.5
2017-04-11T04:17:24.246Z,946.5
2017-04-11T04:18:32.335Z,946.5
2017-04-11T04:19:40.425Z,946.5
2017-04-11T04:20:48.505Z,946.5
2017-04-11T04:21:56.649Z,946.5
2017-04-11T04:23:04.681Z,946.5
2017-04-11T04:24:12.768Z,946.6
2017-04-11T04:25:20.855Z,946.5
2017-04-11T04:26:28.937Z,946.5
2017-04-11T04:27:37.085Z,946.5
2017-04-11T04:28:45.113Z,946.5
2017-04-11T04:29:53.699Z,946.5
2017-04-11T04:31:01.285Z,946.5
2017-04-11T04:32:09.365Z,946.5
2017-04-11T04:33:17.515Z,946.5
2017-04-11T04:34:25.550Z,946.5
2017-04-11T04:35:33.683Z,946.5
2017-04-11T04:36:41.718Z,946.5
2017-04-11T04:37:49.801Z,946.5
2017-04-11T04:38:58.393Z,946.5
2017-04-11T04:40:06.010Z,946.5
2017-04-11T04:41:14.064Z,946.5
2017-04-11T04:42:22.155Z,946.6
2017-04-11T04:43:30.245Z,946.6
2017-04-11T04:44:38.382Z,946.5
2017-04-11T04:45:46.934Z,946.6
2017-04-11T04:46:54.512Z,946.6
2017-04-11T04:48:02.589Z,946.6
2017-04-11T04:49:10.670Z,946.6
2017-04-11T04:50:18.878Z,946.6
2017-04-11T04:51:26.884Z,946.6
2017-04-11T04:52:34.935Z,946.6
2017-04-11T04:53:43.018Z,946.6
2017-04-11T04:54:51.112Z,946.6
2017-04-11T04:55:59.249Z,946.6
2017-04-11T04:57:07.292Z,946.6
2017-04-11T04:58:15.379Z,946.6
2017-04-11T04:59:23.467Z,946.7
2017-04-11T05:00:31.555Z,946.6
2017-04-11T05:01:40.230Z,946.6
2017-04-11T05:02:47.731Z,946.6
2017-04-11T05:03:55.813Z,946.6
2017-04-11T05:05:03.896Z,946.7
2017-04-11T05:06:11.984Z,946.7
2017-04-11T05:07:20.201Z,946.7
2017-04-11T05:08:28.151Z,946.7
2017-04-11T05:09:36.239Z,946.7
2017-04-11T05:10:44.328Z,946.7
2017-04-11T05:11:52.412Z,946.8
2017-04-11T05:13:00.659Z,946.8
2017-04-11T05:14:08.580Z,946.8
2017-04-11T05:15:16.664Z,946.9
2017-04-11T05:16:24.772Z,946.9
2017-04-11T05:17:33.351Z,946.9
2017-04-11T05:18:40.988Z,946.9
2017-04-11T05:19:49.030Z,946.9
2017-04-11T05:20:57.112Z,946.9
2017-04-11T05:22:05.231Z,947.0
2017-04-11T05:23:13.363Z,947.0
2017-04-11T05:24:21.489Z,947.0
2017-04-11T05:25:29.457Z,947.0
2017-04-11T05:26:37.545Z,947.0
2017-04-11T05:27:45.628Z,947.0
2017-04-11T05:28:53.713Z,947.0
2017-04-11T05:30:01.859Z,947.0
2017-04-11T05:31:09.888Z,947.0
2017-04-11T05:32:17.970Z,947.0
2017-04-11T05:33:26.565Z,947.0
2017-04-11T05:34:34.211Z,947.0
2017-04-11T05:35:42.285Z,947.0
2017-04-11T05:36:50.306Z,947.0
2017-04-11T05:37:58.393Z,947.0
2017-04-11T05:39:06.481Z,947.0
2017-04-11T05:40:14.789Z,947.1
2017-04-11T05:41:23.163Z,947.1
2017-04-11T05:42:30.740Z,947.1
2017-04-11T05:43:38.862Z,947.1
2017-04-11T05:44:46.917Z,947.0
2017-04-11T05:45:55.050Z,947.1
2017-04-11T05:47:03.649Z,947.1
2017-04-11T05:48:11.219Z,947.1
2017-04-11T05:49:19.952Z,947.1
2017-04-11T05:50:27.511Z,947.2
2017-04-11T05:51:35.443Z,947.1
2017-04-11T05:52:43.579Z,947.2
2017-04-11T05:53:51.611Z,947.2
2017-04-11T05:54:59.690Z,947.2
2017-04-11T05:56:08.408Z,947.2
2017-04-11T05:57:15.878Z,947.2
2017-04-11T05:58:24.018Z,947.2
2017-04-11T05:59:32.044Z,947.2
2017-04-11T06:00:40.232Z,947.2
2017-04-11T06:01:48.213Z,947.2
2017-04-11T06:02:56.335Z,947.3
2017-04-11T06:04:04.882Z,947.3
2017-04-11T06:05:12.585Z,947.3
2017-04-11T06:06:20.558Z,947.3
2017-04-11T06:07:28.640Z,947.4
2017-04-11T06:08:36.726Z,947.4
2017-04-11T06:09:44.872Z,947.4
2017-04-11T06:10:52.901Z,947.4
2017-04-11T06:12:01.047Z,947.4
2017-04-11T06:13:09.070Z,947.4
2017-04-11T06:14:17.170Z,947.4
2017-04-11T06:15:25.751Z,947.4
2017-04-11T06:16:33.330Z,947.5
2017-04-11T06:17:41.414Z,947.5
2017-04-11T06:18:49.491Z,947.5
2017-04-11T06:19:57.578Z,947.5
2017-04-11T06:21:05.726Z,947.5
2017-04-11T06:22:13.751Z,947.5
2017-04-11T06:23:21.836Z,947.5
2017-04-11T06:24:29.922Z,947.6
2017-04-11T06:25:38.010Z,947.6
2017-04-11T06:26:46.761Z,947.6
2017-04-11T06:27:54.176Z,947.6
2017-04-11T06:29:02.264Z,947.6
2017-04-11T06:30:10.504Z,947.6
2017-04-11T06:31:18.436Z,947.6
2017-04-11T06:32:26.579Z,947.6
2017-04-11T06:33:34.689Z,947.6
2017-04-11T06:34:42.702Z,947.6
2017-04-11T06:35:51.071Z,947.6
2017-04-11T06:36:59.380Z,947.7
2017-04-11T06:38:07.008Z,947.7
2017-04-11T06:39:15.043Z,947.7
2017-04-11T06:40:23.126Z,947.7
2017-04-11T06:41:31.210Z,947.7
2017-04-11T06:42:39.293Z,947.6
2017-04-11T06:43:47.972Z,947.6
2017-04-11T06:44:55.464Z,947.6
2017-04-11T06:46:03.551Z,947.6
2017-04-11T06:47:11.632Z,947.5
2017-04-11T06:48:19.720Z,947.5
2017-04-11T06:49:27.930Z,947.5
2017-04-11T06:50:35.886Z,947.6
2017-04-11T06:51:43.974Z,947.6
2017-04-11T06:52:52.119Z,947.6
2017-04-11T06:54:00.150Z,947.6
2017-04-11T06:55:08.872Z,947.6
2017-04-11T06:56:16.318Z,947.6
2017-04-11T06:57:24.400Z,947.6
2017-04-11T06:58:32.591Z,947.6
2017-04-11T06:59:40.563Z,947.7
2017-04-11T07:00:48.754Z,947.6
2017-04-11T07:01:56.735Z,947.6
2017-04-11T07:03:04.818Z,947.6
2017-04-11T07:04:12.906Z,947.6
2017-04-11T07:05:20.990Z,947.6
2017-04-11T07:06:29.686Z,947.7
2017-04-11T07:07:37.387Z,947.7
2017-04-11T07:08:45.619Z,947.7
2017-04-11T07:09:53.427Z,947.7
2017-04-11T07:11:01.540Z,947.7
2017-04-11T07:12:09.848Z,947.7
2017-04-11T07:13:18.128Z,947.8
2017-04-11T07:14:26.158Z,947.7
2017-04-11T07:15:34.153Z,947.7
2017-04-11T07:16:42.494Z,947.7
2017-04-11T07:17:51.573Z,947.7
2017-04-11T07:18:58.006Z,947.7
2017-04-11T07:20:06.200Z,947.7
2017-04-11T07:21:14.492Z,947.7
2017-04-11T07:22:22.900Z,947.7
2017-04-11T07:23:30.967Z,947.8
2017-04-11T07:24:39.032Z,947.7
2017-04-11T07:25:46.514Z,947.7
2017-04-11T07:26:54.888Z,947.7
2017-04-11T07:28:02.719Z,947.7
2017-04-11T07:29:11.029Z,947.7
2017-04-11T07:30:18.860Z,947.7
2017-04-11T07:31:27.503Z,947.6
2017-04-11T07:32:35.036Z,947.7
2017-04-11T07:33:43.117Z,947.7
2017-04-11T07:34:51.335Z,947.7
2017-04-11T07:35:59.979Z,947.7
2017-04-11T07:37:07.472Z,947.7
2017-04-11T07:38:16.050Z,947.7
2017-04-11T07:39:23.546Z,947.7
2017-04-11T07:40:32.135Z,947.7
2017-04-11T07:41:39.711Z,947.7
2017-04-11T07:42:47.886Z,947.8
2017-04-11T07:43:55.884Z,947.8
2017-04-11T07:45:03.971Z,947.8
2017-04-11T07:46:12.106Z,947.8
2017-04-11T07:47:20.146Z,947.8
2017-04-11T07:48:28.878Z,947.9
2017-04-11T07:49:36.536Z,947.8
2017-04-11T07:50:44.872Z,947.9
2017-04-11T07:51:54.681Z,947.9
2017-04-11T07:53:01.057Z,947.9
2017-04-11T07:54:08.819Z,947.9
2017-04-11T07:55:17.204Z,947.8
2017-04-11T07:56:25.540Z,947.9
2017-04-11T07:57:33.847Z,947.9
2017-04-11T07:58:41.220Z,947.8
2017-04-11T07:59:49.846Z,947.8
2017-04-11T08:00:57.281Z,947.8
2017-04-11T08:02:05.750Z,947.9
2017-04-11T08:03:14.154Z,947.9
2017-04-11T08:04:21.663Z,947.9
2017-04-11T08:05:29.583Z,947.9
2017-04-11T08:06:37.675Z,947.9
2017-04-11T08:07:45.907Z,947.9
2017-04-11T08:08:55.654Z,947.9
2017-04-11T08:10:02.300Z,947.9
2017-04-11T08:11:10.379Z,947.9
2017-04-11T08:12:18.408Z,947.9
2017-04-11T08:13:26.241Z,948.0
2017-04-11T08:14:35.136Z,948.0
2017-04-11T08:15:42.544Z,948.0
2017-04-11T08:16:50.493Z,948.0
2017-04-11T08:17:58.624Z,948.0
2017-04-11T08:19:07.225Z,948.0
2017-04-11T08:20:14.977Z,948.0
2017-04-11T08:21:22.832Z,948.0
2017-04-11T08:22:30.881Z,948.0
2017-04-11T08:23:39.327Z,948.0
2017-04-11T08:24:47.255Z,948.0
2017-04-11T08:25:55.630Z,948.0
2017-04-11T08:27:03.231Z,948.0
2017-04-11T08:28:13.405Z,948.0
2017-04-11T08:29:19.324Z,948.0
2017-04-11T08:30:27.529Z,948.0
2017-04-11T08:31:37.478Z,948.0
2017-04-11T08:32:43.539Z,948.1
2017-04-11T08:33:51.636Z,948.1
2017-04-11T08:34:59.726Z,948.1
2017-04-11T08:36:07.809Z,948.1
2017-04-11T08:37:15.962Z,948.2
2017-04-11T08:38:23.992Z,948.2
2017-04-11T08:39:32.122Z,948.2
2017-04-11T08:40:40.170Z,948.2
2017-04-11T08:41:48.241Z,948.2
2017-04-11T08:42:57.984Z,948.2
2017-04-11T08:44:04.498Z,948.2
2017-04-11T08:45:12.500Z,948.2
2017-04-11T08:46:20.583Z,948.2
2017-04-11T08:47:28.674Z,948.2
2017-04-11T08:48:36.876Z,948.2
2017-04-11T08:49:44.841Z,948.2
2017-04-11T08:50:52.942Z,948.3
2017-04-11T08:52:01.028Z,948.2
2017-04-11T08:53:09.109Z,948.2
2017-04-11T08:54:17.310Z,948.2
2017-04-11T08:55:25.280Z,948.2
2017-04-11T08:56:33.368Z,948.2
2017-04-11T08:57:41.457Z,948.2
2017-04-11T08:58:49.705Z,948.2
2017-04-11T08:59:58.140Z,948.2
2017-04-11T09:01:05.718Z,948.2
2017-04-11T09:02:13.802Z,948.2
2017-04-11T09:03:21.889Z,948.2
2017-04-11T09:04:29.980Z,948.2
2017-04-11T09:05:38.131Z,948.2
2017-04-11T09:06:46.153Z,948.2
2017-04-11T09:07:54.252Z,948.3
2017-04-11T09:09:02.327Z,948.3
2017-04-11T09:10:10.414Z,948.3
2017-04-11T09:11:18.554Z,948.3
2017-04-11T09:12:26.586Z,948.3
2017-04-11T09:13:34.670Z,948.3
2017-04-11T09:14:42.757Z,948.3
2017-04-11T09:15:51.362Z,948.3
2017-04-11T09:16:58.990Z,948.3
2017-04-11T09:18:07.024Z,948.3
2017-04-11T09:19:15.112Z,948.3
2017-04-11T09:20:23.188Z,948.3
2017-04-11T09:21:31.273Z,948.3
2017-04-11T09:22:39.422Z,948.4
2017-04-11T09:23:47.451Z,948.4
2017-04-11T09:24:55.531Z,948.4
2017-04-11T09:26:03.695Z,948.4
2017-04-11T09:27:11.765Z,948.3
2017-04-11T09:28:20.295Z,948.3
2017-04-11T09:29:27.875Z,948.3
2017-04-11T09:30:36.155Z,948.3
2017-04-11T09:31:44.265Z,948.3
2017-04-11T09:32:52.127Z,948.3
2017-04-11T09:34:00.270Z,948.3
2017-04-11T09:35:08.306Z,948.3
2017-04-11T09:36:16.400Z,948.3
2017-04-11T09:37:24.483Z,948.3
2017-04-11T09:38:32.564Z,948.3
2017-04-11T09:39:41.161Z,948.2
2017-04-11T09:40:48.733Z,948.3
2017-04-11T09:41:56.856Z,948.3
2017-04-11T09:43:04.905Z,948.3
2017-04-11T09:44:13.086Z,948.3
2017-04-11T09:45:21.135Z,948.3
2017-04-11T09:46:29.165Z,948.3
2017-04-11T09:47:37.751Z,948.3
2017-04-11T09:48:45.330Z,948.3
2017-04-11T09:49:53.420Z,948.3
2017-04-11T09:51:01.561Z,948.2
2017-04-11T09:52:09.586Z,948.3
2017-04-11T09:53:17.825Z,948.2
2017-04-11T09:54:25.768Z,948.3
2017-04-11T09:55:33.848Z,948.2
2017-04-11T09:56:42.054Z,948.2
2017-04-11T09:57:50.025Z,948.3
2017-04-11T09:58:58.111Z,948.2
2017-04-11T10:00:06.198Z,948.2
2017-04-11T10:01:14.286Z,948.3
2017-04-11T10:02:22.427Z,948.3
2017-04-11T10:03:31.036Z,948.2
2017-04-11T10:04:38.541Z,948.3
2017-04-11T10:05:46.627Z,948.3
2017-04-11T10:06:54.712Z,948.3
2017-04-11T10:08:02.941Z,948.2
2017-04-11T10:09:11.043Z,948.2
2017-04-11T10:10:18.981Z,948.2
2017-04-11T10:11:27.064Z,948.2
2017-04-11T10:12:35.148Z,948.2
2017-04-11T10:13:43.355Z,948.3
2017-04-11T10:14:51.328Z,948.3
2017-04-11T10:15:59.401Z,948.2
2017-04-11T10:17:07.496Z,948.2
2017-04-11T10:18:15.582Z,948.2
2017-04-11T10:19:24.222Z,948.2
2017-04-11T10:20:31.749Z,948.2
2017-04-11T10:21:39.842Z,948.2
2017-04-11T10:22:47.930Z,948.2
2017-04-11T10:23:56.009Z,948.2
2017-04-11T10:25:04.155Z,948.2
2017-04-11T10:26:12.183Z,948.2
2017-04-11T10:27:20.268Z,948.2
2017-04-11T10:28:28.355Z,948.2
2017-04-11T10:29:36.594Z,948.2
2017-04-11T10:30:44.749Z,948.2
2017-04-11T10:31:52.618Z,948.2
2017-04-11T10:33:00.712Z,948.2
2017-04-11T10:34:08.799Z,948.2
2017-04-11T10:35:17.384Z,948.2
2017-04-11T10:36:25.029Z,948.2
2017-04-11T10:37:33.063Z,948.1
2017-04-11T10:38:41.147Z,948.1
2017-04-11T10:39:49.226Z,948.1
2017-04-11T10:40:57.314Z,948.1
2017-04-11T10:42:05.456Z,948.1
2017-04-11T10:43:13.480Z,948.1
2017-04-11T10:44:21.947Z,948.2
2017-04-11T10:45:29.658Z,948.2
2017-04-11T10:46:37.741Z,948.2
2017-04-11T10:47:47.328Z,948.1
2017-04-11T10:48:53.913Z,948.1
2017-04-11T10:50:01.996Z,948.1
2017-04-11T10:51:10.394Z,948.1
2017-04-11T10:52:18.169Z,948.1
2017-04-11T10:53:26.315Z,948.0
2017-04-11T10:54:34.339Z,948.0
2017-04-11T10:55:42.424Z,948.0
2017-04-11T10:56:50.563Z,948.0
2017-04-11T10:57:58.667Z,948.0
2017-04-11T10:59:07.189Z,948.0
2017-04-11T11:00:14.773Z,948.0
2017-04-11T11:01:22.858Z,948.0
2017-04-11T11:02:31.131Z,948.0
2017-04-11T11:03:39.036Z,948.0
2017-04-11T11:04:47.176Z,948.0
2017-04-11T11:05:55.211Z,948.1
2017-04-11T11:07:03.348Z,948.0
2017-04-11T11:08:11.424Z,948.0
2017-04-11T11:09:19.844Z,948.0
2017-04-11T11:10:28.053Z,948.0
2017-04-11T11:11:35.640Z,947.9
2017-04-11T11:12:43.778Z,947.9
2017-04-11T11:13:51.849Z,947.9
2017-04-11T11:14:59.910Z,947.9
2017-04-11T11:16:08.053Z,947.9
2017-04-11T11:17:16.078Z,947.9
2017-04-11T11:18:24.164Z,947.9
2017-04-11T11:19:32.253Z,947.9
2017-04-11T11:20:40.340Z,947.9
2017-04-11T11:21:48.497Z,947.9
2017-04-11T11:22:57.013Z,947.9
2017-04-11T11:24:04.702Z,947.9
2017-04-11T11:25:12.695Z,947.8
2017-04-11T11:26:20.771Z,947.9
2017-04-11T11:27:28.913Z,947.8
2017-04-11T11:28:37.122Z,947.8
2017-04-11T11:29:45.089Z,947.8
2017-04-11T11:30:53.110Z,947.8
2017-04-11T11:32:01.316Z,947.9
2017-04-11T11:33:09.345Z,947.8
2017-04-11T11:34:17.375Z,947.9
2017-04-11T11:35:25.463Z,947.8
2017-04-11T11:36:33.556Z,947.8
2017-04-11T11:37:41.642Z,947.8
2017-04-11T11:38:50.232Z,947.8
2017-04-11T11:39:57.842Z,947.8
2017-04-11T11:41:05.902Z,947.8
2017-04-11T11:42:13.985Z,947.8
2017-04-11T11:43:22.073Z,947.8
2017-04-11T11:44:30.284Z,947.8
2017-04-11T11:45:38.272Z,947.8
2017-04-11T11:46:46.342Z,947.8
2017-04-11T11:47:54.432Z,947.8
2017-04-11T11:49:02.520Z,947.8
2017-04-11T11:50:10.792Z,947.8
2017-04-11T11:51:18.804Z,947.8
2017-04-11T11:52:26.780Z,947.8
2017-04-11T11:53:34.866Z,947.8
2017-04-11T11:54:43.453Z,947.8
2017-04-11T11:55:51.092Z,947.8
2017-04-11T11:56:59.122Z,947.8
2017-04-11T11:58:07.201Z,947.7
2017-04-11T11:59:15.291Z,947.7
2017-04-11T12:00:23.375Z,947.7
2017-04-11T12:01:31.632Z,947.7
2017-04-11T12:02:39.545Z,947.7
2017-04-11T12:03:47.636Z,947.7
2017-04-11T12:04:55.722Z,947.7
2017-04-11T12:06:03.801Z,947.7
2017-04-11T12:07:11.951Z,947.7
2017-04-11T12:08:19.981Z,947.7
2017-04-11T12:09:28.069Z,947.7
2017-04-11T12:10:36.215Z,947.7
2017-04-11T12:11:44.291Z,947.7
2017-04-11T12:12:52.868Z,947.7
2017-04-11T12:14:00.431Z,947.7
2017-04-11T12:15:08.512Z,947.7
2017-04-11T12:16:16.759Z,947.7
2017-04-11T12:17:24.830Z,947.7
2017-04-11T12:18:32.834Z,947.7
2017-04-11T12:19:40.869Z,947.7
2017-04-11T12:20:48.955Z,947.7
2017-04-11T12:21:57.037Z,947.7
2017-04-11T12:23:05.127Z,947.6
2017-04-11T12:24:13.269Z,947.6
2017-04-11T12:25:21.303Z,947.6
2017-04-11T12:26:29.886Z,947.6
2017-04-11T12:27:37.624Z,947.6
2017-04-11T12:28:45.566Z,947.6
2017-04-11T12:29:53.711Z,947.6
2017-04-11T12:31:01.749Z,947.6
2017-04-11T12:32:09.836Z,947.6
2017-04-11T12:33:17.919Z,947.6
2017-04-11T12:34:26.005Z,947.6
2017-04-11T12:35:34.153Z,947.6
2017-04-11T12:36:42.180Z,947.5
2017-04-11T12:37:50.262Z,947.6
2017-04-11T12:38:58.421Z,947.6
2017-04-11T12:40:06.450Z,947.5
2017-04-11T12:41:15.037Z,947.5
2017-04-11T12:42:22.675Z,947.5
2017-04-11T12:43:30.881Z,947.5
2017-04-11T12:44:38.800Z,947.5
2017-04-11T12:45:46.892Z,947.5
2017-04-11T12:46:55.106Z,947.5
2017-04-11T12:48:03.074Z,947.5
2017-04-11T12:49:11.162Z,947.5
2017-04-11T12:50:19.246Z,947.4
2017-04-11T12:51:27.329Z,947.5
2017-04-11T12:52:35.925Z,947.4
2017-04-11T12:53:43.621Z,947.5
2017-04-11T12:54:51.694Z,947.5
2017-04-11T12:55:59.679Z,947.4
2017-04-11T12:57:07.757Z,947.4
2017-04-11T12:58:15.972Z,947.4
2017-04-11T12:59:23.946Z,947.4
2017-04-11T13:00:32.024Z,947.5
2017-04-11T13:01:40.104Z,947.5
2017-04-11T13:02:48.197Z,947.5
2017-04-11T13:03:56.792Z,947.5
2017-04-11T13:05:04.500Z,947.5
2017-04-11T13:06:12.462Z,947.5
2017-04-11T13:07:20.541Z,947.5
2017-04-11T13:08:28.627Z,947.5
2017-04-11T13:09:36.831Z,947.5
2017-04-11T13:10:44.802Z,947.5
2017-04-11T13:11:52.896Z,947.4
2017-04-11T13:13:00.972Z,947.4
2017-04-11T13:14:09.115Z,947.4
2017-04-11T13:15:17.360Z,947.4
2017-04-11T13:16:25.400Z,947.4
2017-04-11T13:17:33.314Z,947.4
2017-04-11T13:18:41.407Z,947.4
2017-04-11T13:19:49.520Z,947.4
2017-04-11T13:20:57.643Z,947.4
2017-04-11T13:22:05.675Z,947.4
2017-04-11T13:23:13.760Z,947.4
2017-04-11T13:24:21.844Z,947.4
2017-04-11T13:25:29.929Z,947.4
2017-04-11T13:26:38.705Z,947.3
2017-04-11T13:27:46.105Z,947.3
2017-04-11T13:28:54.194Z,947.2
2017-04-11T13:30:02.336Z,947.3
2017-04-11T13:31:10.377Z,947.3
2017-04-11T13:32:18.532Z,947.2
2017-04-11T13:33:26.542Z,947.2
2017-04-11T13:34:34.630Z,947.2
2017-04-11T13:35:42.713Z,947.2
2017-04-11T13:36:50.850Z,947.2
2017-04-11T13:37:59.106Z,947.2
2017-04-11T13:39:06.972Z,947.2
2017-04-11T13:40:15.070Z,947.2
2017-04-11T13:41:23.149Z,947.2
2017-04-11T13:42:31.249Z,947.2
2017-04-11T13:43:39.394Z,947.2
2017-04-11T13:44:47.415Z,947.2
2017-04-11T13:45:55.563Z,947.2
2017-04-11T13:47:03.595Z,947.2
2017-04-11T13:48:11.828Z,947.2
2017-04-11T13:49:20.272Z,947.2
2017-04-11T13:50:27.850Z,947.2
2017-04-11T13:51:35.961Z,947.2
2017-04-11T13:52:44.027Z,947.2
2017-04-11T13:53:52.127Z,947.1
2017-04-11T13:55:00.709Z,947.1
2017-04-11T13:56:08.298Z,947.1
2017-04-11T13:57:16.384Z,947.1
2017-04-11T13:58:24.489Z,947.1
2017-04-11T13:59:32.664Z,947.0
2017-04-11T14:00:40.761Z,947.0
2017-04-11T14:01:48.781Z,947.0
2017-04-11T14:02:56.851Z,947.0
2017-04-11T14:04:04.903Z,947.0
2017-04-11T14:05:12.987Z,947.0
2017-04-11T14:06:21.576Z,947.0
2017-04-11T14:07:29.151Z,947.1
2017-04-11T14:08:37.237Z,947.1
2017-04-11T14:09:45.363Z,947.1
2017-04-11T14:10:53.409Z,947.0
2017-04-11T14:12:01.548Z,947.0
2017-04-11T14:13:09.579Z,947.0
2017-04-11T14:14:17.674Z,947.0
2017-04-11T14:15:25.777Z,947.0
2017-04-11T14:16:33.841Z,947.0
2017-04-11T14:17:41.987Z,947.0
2017-04-11T14:18:50.012Z,947.0
2017-04-11T14:19:58.096Z,947.0
2017-04-11T14:21:06.260Z,947.0
2017-04-11T14:22:14.270Z,947.1
2017-04-11T14:23:22.858Z,947.1
2017-04-11T14:24:30.436Z,947.1
2017-04-11T14:25:38.527Z,947.0
2017-04-11T14:26:46.611Z,947.0
2017-04-11T14:27:54.693Z,947.0
2017-04-11T14:29:02.837Z,947.0
2017-04-11T14:30:10.865Z,947.0
2017-04-11T14:31:19.063Z,946.9
2017-04-11T14:32:27.056Z,946.9
2017-04-11T14:33:35.255Z,946.9
2017-04-11T14:34:43.723Z,947.0
2017-04-11T14:35:51.311Z,947.0
2017-04-11T14:36:59.399Z,947.0